sensor_id;sensor_type;location;lat;lon;timestamp;P1;durP1;ratioP1;P2;durP2;ratioP2
4694;SDS011;2361;49.540;8.390;2023-04-16T00:01:34;14.23;;;8.17;;
4694;SDS011;2361;49.540;8.390;2023-04-16T00:04:01;11.37;;;6.47;;
4694;SDS011;2361;49.540;8.390;2023-04-16T00:06:29;11.27;;;7.03;;
4694;SDS011;2361;49.540;8.390;2023-04-16T00:08:57;12.63;;;7.97;;
4694;SDS011;2361;49.540;8.390;2023-04-16T00:11:24;12.60;;;8.37;;
4694;SDS011;2361;49.540;8.390;2023-04-16T00:13:51;9.77;;;5.03;;
4694;SDS011;2361;49.540;8.390;2023-04-16T00:16:18;7.20;;;5.47;;
4694;SDS011;2361;49.540;8.390;2023-04-16T00:18:45;9.50;;;6.07;;
4694;SDS011;2361;49.540;8.390;2023-04-16T00:21:12;9.77;;;6.40;;
4694;SDS011;2361;49.540;8.390;2023-04-16T00:23:39;10.50;;;6.10;;
4694;SDS011;2361;49.540;8.390;2023-04-16T00:26:07;11.17;;;8.37;;
4694;SDS011;2361;49.540;8.390;2023-04-16T00:28:34;10.17;;;7.73;;
4694;SDS011;2361;49.540;8.390;2023-04-16T00:31:01;7.60;;;5.30;;
4694;SDS011;2361;49.540;8.390;2023-04-16T00:33:28;10.10;;;5.27;;
4694;SDS011;2361;49.540;8.390;2023-04-16T00:35:55;10.13;;;4.80;;
4694;SDS011;2361;49.540;8.390;2023-04-16T00:38:22;9.43;;;6.77;;
4694;SDS011;2361;49.540;8.390;2023-04-16T00:40:49;6.90;;;4.43;;
4694;SDS011;2361;49.540;8.390;2023-04-16T00:43:20;9.40;;;7.40;;
4694;SDS011;2361;49.540;8.390;2023-04-16T00:45:50;9.93;;;5.50;;
4694;SDS011;2361;49.540;8.390;2023-04-16T00:48:19;10.03;;;6.43;;
4694;SDS011;2361;49.540;8.390;2023-04-16T00:50:46;12.03;;;7.57;;
4694;SDS011;2361;49.540;8.390;2023-04-16T00:53:14;9.10;;;5.17;;
4694;SDS011;2361;49.540;8.390;2023-04-16T00:55:41;8.97;;;5.60;;
4694;SDS011;2361;49.540;8.390;2023-04-16T00:58:09;9.23;;;6.70;;
4694;SDS011;2361;49.540;8.390;2023-04-16T01:00:35;7.67;;;5.50;;
4694;SDS011;2361;49.540;8.390;2023-04-16T01:03:02;8.93;;;6.43;;
4694;SDS011;2361;49.540;8.390;2023-04-16T01:05:30;15.63;;;7.77;;
4694;SDS011;2361;49.540;8.390;2023-04-16T01:07:57;10.13;;;6.40;;
4694;SDS011;2361;49.540;8.390;2023-04-16T01:10:27;8.67;;;5.37;;
4694;SDS011;2361;49.540;8.390;2023-04-16T01:12:54;5.10;;;3.53;;
4694;SDS011;2361;49.540;8.390;2023-04-16T01:15:21;9.03;;;5.70;;
4694;SDS011;2361;49.540;8.390;2023-04-16T01:17:48;8.70;;;5.60;;
4694;SDS011;2361;49.540;8.390;2023-04-16T01:20:15;10.40;;;6.60;;
4694;SDS011;2361;49.540;8.390;2023-04-16T01:22:42;9.57;;;6.80;;
4694;SDS011;2361;49.540;8.390;2023-04-16T01:25:12;4.27;;;2.87;;
4694;SDS011;2361;49.540;8.390;2023-04-16T01:27:41;11.70;;;6.50;;
4694;SDS011;2361;49.540;8.390;2023-04-16T01:30:08;9.90;;;6.17;;
4694;SDS011;2361;49.540;8.390;2023-04-16T01:32:35;12.57;;;7.47;;
4694;SDS011;2361;49.540;8.390;2023-04-16T01:35:02;10.80;;;6.80;;
4694;SDS011;2361;49.540;8.390;2023-04-16T01:37:29;11.40;;;7.50;;
4694;SDS011;2361;49.540;8.390;2023-04-16T01:39:57;8.50;;;5.57;;
4694;SDS011;2361;49.540;8.390;2023-04-16T01:42:24;7.10;;;5.27;;
4694;SDS011;2361;49.540;8.390;2023-04-16T01:44:50;8.00;;;4.80;;
4694;SDS011;2361;49.540;8.390;2023-04-16T01:47:17;10.63;;;6.80;;
4694;SDS011;2361;49.540;8.390;2023-04-16T01:49:44;10.40;;;5.80;;
4694;SDS011;2361;49.540;8.390;2023-04-16T01:52:13;12.20;;;7.70;;
4694;SDS011;2361;49.540;8.390;2023-04-16T01:54:40;14.00;;;7.13;;
4694;SDS011;2361;49.540;8.390;2023-04-16T01:57:07;12.53;;;8.37;;
4694;SDS011;2361;49.540;8.390;2023-04-16T01:59:34;11.97;;;7.10;;
4694;SDS011;2361;49.540;8.390;2023-04-16T02:02:10;10.67;;;7.20;;
4694;SDS011;2361;49.540;8.390;2023-04-16T02:04:43;17.43;;;6.27;;
4694;SDS011;2361;49.540;8.390;2023-04-16T02:07:11;9.00;;;6.00;;
4694;SDS011;2361;49.540;8.390;2023-04-16T02:09:38;9.30;;;6.23;;
4694;SDS011;2361;49.540;8.390;2023-04-16T02:12:06;11.90;;;7.00;;
4694;SDS011;2361;49.540;8.390;2023-04-16T02:14:34;9.70;;;6.10;;
4694;SDS011;2361;49.540;8.390;2023-04-16T02:17:01;12.60;;;7.20;;
4694;SDS011;2361;49.540;8.390;2023-04-16T02:19:29;14.00;;;8.67;;
4694;SDS011;2361;49.540;8.390;2023-04-16T02:21:56;12.10;;;7.23;;
4694;SDS011;2361;49.540;8.390;2023-04-16T02:24:23;11.20;;;6.40;;
4694;SDS011;2361;49.540;8.390;2023-04-16T02:26:50;6.43;;;4.47;;
4694;SDS011;2361;49.540;8.390;2023-04-16T02:29:17;15.63;;;8.20;;
4694;SDS011;2361;49.540;8.390;2023-04-16T02:31:44;12.80;;;7.40;;
4694;SDS011;2361;49.540;8.390;2023-04-16T02:34:12;10.63;;;6.07;;
4694;SDS011;2361;49.540;8.390;2023-04-16T02:36:39;8.50;;;5.20;;
4694;SDS011;2361;49.540;8.390;2023-04-16T02:39:06;10.63;;;7.00;;
4694;SDS011;2361;49.540;8.390;2023-04-16T02:41:33;10.77;;;7.03;;
4694;SDS011;2361;49.540;8.390;2023-04-16T02:44:01;7.47;;;3.87;;
4694;SDS011;2361;49.540;8.390;2023-04-16T02:46:28;8.27;;;5.77;;
4694;SDS011;2361;49.540;8.390;2023-04-16T02:48:55;8.37;;;5.17;;
4694;SDS011;2361;49.540;8.390;2023-04-16T02:51:22;12.30;;;7.33;;
4694;SDS011;2361;49.540;8.390;2023-04-16T02:53:49;11.90;;;6.80;;
4694;SDS011;2361;49.540;8.390;2023-04-16T02:56:16;9.40;;;5.83;;
4694;SDS011;2361;49.540;8.390;2023-04-16T02:58:43;8.93;;;6.07;;
4694;SDS011;2361;49.540;8.390;2023-04-16T03:01:10;12.50;;;7.33;;
4694;SDS011;2361;49.540;8.390;2023-04-16T03:03:37;11.30;;;6.90;;
4694;SDS011;2361;49.540;8.390;2023-04-16T03:06:04;10.10;;;4.27;;
4694;SDS011;2361;49.540;8.390;2023-04-16T03:08:31;13.37;;;8.00;;
4694;SDS011;2361;49.540;8.390;2023-04-16T03:10:58;13.93;;;7.90;;
4694;SDS011;2361;49.540;8.390;2023-04-16T03:13:25;16.40;;;8.00;;
4694;SDS011;2361;49.540;8.390;2023-04-16T03:15:52;11.67;;;6.87;;
4694;SDS011;2361;49.540;8.390;2023-04-16T03:18:19;7.43;;;5.30;;
4694;SDS011;2361;49.540;8.390;2023-04-16T03:20:50;8.40;;;5.43;;
4694;SDS011;2361;49.540;8.390;2023-04-16T03:23:18;11.10;;;7.23;;
4694;SDS011;2361;49.540;8.390;2023-04-16T03:25:45;12.10;;;6.77;;
4694;SDS011;2361;49.540;8.390;2023-04-16T03:28:13;11.47;;;6.10;;
4694;SDS011;2361;49.540;8.390;2023-04-16T03:30:40;6.93;;;4.70;;
4694;SDS011;2361;49.540;8.390;2023-04-16T03:33:07;12.97;;;8.07;;
4694;SDS011;2361;49.540;8.390;2023-04-16T03:35:34;9.73;;;5.60;;
4694;SDS011;2361;49.540;8.390;2023-04-16T03:38:01;14.70;;;7.43;;
4694;SDS011;2361;49.540;8.390;2023-04-16T03:40:28;14.50;;;8.03;;
4694;SDS011;2361;49.540;8.390;2023-04-16T03:42:55;9.10;;;5.30;;
4694;SDS011;2361;49.540;8.390;2023-04-16T03:45:22;16.27;;;8.33;;
4694;SDS011;2361;49.540;8.390;2023-04-16T03:47:49;11.10;;;6.10;;
4694;SDS011;2361;49.540;8.390;2023-04-16T03:50:18;15.10;;;10.37;;
4694;SDS011;2361;49.540;8.390;2023-04-16T03:52:45;7.87;;;5.50;;
4694;SDS011;2361;49.540;8.390;2023-04-16T03:55:14;8.00;;;4.10;;
4694;SDS011;2361;49.540;8.390;2023-04-16T03:57:41;12.80;;;4.97;;
4694;SDS011;2361;49.540;8.390;2023-04-16T04:00:08;10.80;;;5.20;;
4694;SDS011;2361;49.540;8.390;2023-04-16T04:02:35;14.17;;;7.60;;
4694;SDS011;2361;49.540;8.390;2023-04-16T04:05:03;11.53;;;6.10;;
4694;SDS011;2361;49.540;8.390;2023-04-16T04:07:30;7.00;;;4.67;;
4694;SDS011;2361;49.540;8.390;2023-04-16T04:09:57;16.17;;;7.97;;
4694;SDS011;2361;49.540;8.390;2023-04-16T04:12:24;11.57;;;7.87;;
4694;SDS011;2361;49.540;8.390;2023-04-16T04:14:51;12.33;;;7.07;;
4694;SDS011;2361;49.540;8.390;2023-04-16T04:17:18;11.47;;;6.53;;
4694;SDS011;2361;49.540;8.390;2023-04-16T04:19:45;9.73;;;5.00;;
4694;SDS011;2361;49.540;8.390;2023-04-16T04:22:25;6.97;;;4.17;;
4694;SDS011;2361;49.540;8.390;2023-04-16T04:24:52;10.57;;;5.67;;
4694;SDS011;2361;49.540;8.390;2023-04-16T04:27:19;8.47;;;4.60;;
4694;SDS011;2361;49.540;8.390;2023-04-16T04:29:46;8.10;;;4.23;;
4694;SDS011;2361;49.540;8.390;2023-04-16T04:32:13;12.37;;;6.80;;
4694;SDS011;2361;49.540;8.390;2023-04-16T04:34:40;10.70;;;6.20;;
4694;SDS011;2361;49.540;8.390;2023-04-16T04:37:07;6.27;;;4.10;;
4694;SDS011;2361;49.540;8.390;2023-04-16T04:39:34;8.43;;;4.90;;
4694;SDS011;2361;49.540;8.390;2023-04-16T04:42:00;8.53;;;5.40;;
4694;SDS011;2361;49.540;8.390;2023-04-16T04:44:28;12.07;;;7.07;;
4694;SDS011;2361;49.540;8.390;2023-04-16T04:46:55;6.57;;;3.90;;
4694;SDS011;2361;49.540;8.390;2023-04-16T04:49:22;6.40;;;4.40;;
4694;SDS011;2361;49.540;8.390;2023-04-16T04:51:49;9.37;;;5.77;;
4694;SDS011;2361;49.540;8.390;2023-04-16T04:54:16;2.60;;;2.30;;
4694;SDS011;2361;49.540;8.390;2023-04-16T04:56:43;6.13;;;4.20;;
4694;SDS011;2361;49.540;8.390;2023-04-16T04:59:13;7.10;;;4.70;;
4694;SDS011;2361;49.540;8.390;2023-04-16T05:01:39;4.47;;;3.47;;
4694;SDS011;2361;49.540;8.390;2023-04-16T05:04:06;5.17;;;3.40;;
4694;SDS011;2361;49.540;8.390;2023-04-16T05:06:34;3.60;;;2.83;;
4694;SDS011;2361;49.540;8.390;2023-04-16T05:09:01;5.50;;;3.60;;
4694;SDS011;2361;49.540;8.390;2023-04-16T05:11:28;4.17;;;3.50;;
4694;SDS011;2361;49.540;8.390;2023-04-16T05:13:55;9.07;;;4.63;;
4694;SDS011;2361;49.540;8.390;2023-04-16T05:16:22;5.17;;;3.83;;
4694;SDS011;2361;49.540;8.390;2023-04-16T05:18:49;6.93;;;4.30;;
4694;SDS011;2361;49.540;8.390;2023-04-16T05:21:16;5.33;;;4.30;;
4694;SDS011;2361;49.540;8.390;2023-04-16T05:23:43;8.77;;;4.90;;
4694;SDS011;2361;49.540;8.390;2023-04-16T05:26:10;5.77;;;3.63;;
4694;SDS011;2361;49.540;8.390;2023-04-16T05:28:37;4.90;;;3.57;;
4694;SDS011;2361;49.540;8.390;2023-04-16T05:31:04;5.67;;;2.97;;
4694;SDS011;2361;49.540;8.390;2023-04-16T05:33:31;8.67;;;5.70;;
4694;SDS011;2361;49.540;8.390;2023-04-16T05:35:58;5.60;;;4.30;;
4694;SDS011;2361;49.540;8.390;2023-04-16T05:38:25;4.50;;;3.37;;
4694;SDS011;2361;49.540;8.390;2023-04-16T05:40:52;6.13;;;4.47;;
4694;SDS011;2361;49.540;8.390;2023-04-16T05:43:20;9.90;;;5.23;;
4694;SDS011;2361;49.540;8.390;2023-04-16T05:45:47;3.23;;;2.23;;
4694;SDS011;2361;49.540;8.390;2023-04-16T05:48:14;8.30;;;5.20;;
4694;SDS011;2361;49.540;8.390;2023-04-16T05:50:41;8.60;;;4.93;;
4694;SDS011;2361;49.540;8.390;2023-04-16T05:53:08;8.37;;;4.60;;
4694;SDS011;2361;49.540;8.390;2023-04-16T05:55:36;8.47;;;5.20;;
4694;SDS011;2361;49.540;8.390;2023-04-16T05:58:04;8.30;;;3.80;;
4694;SDS011;2361;49.540;8.390;2023-04-16T06:00:31;4.57;;;3.00;;
4694;SDS011;2361;49.540;8.390;2023-04-16T06:02:58;4.47;;;3.30;;
4694;SDS011;2361;49.540;8.390;2023-04-16T06:05:26;2.70;;;1.90;;
4694;SDS011;2361;49.540;8.390;2023-04-16T06:07:54;4.97;;;3.37;;
4694;SDS011;2361;49.540;8.390;2023-04-16T06:10:22;5.83;;;3.80;;
4694;SDS011;2361;49.540;8.390;2023-04-16T06:12:51;4.80;;;3.30;;
4694;SDS011;2361;49.540;8.390;2023-04-16T06:15:18;0.40;;;0.40;;
4694;SDS011;2361;49.540;8.390;2023-04-16T06:17:45;5.33;;;3.20;;
4694;SDS011;2361;49.540;8.390;2023-04-16T06:20:12;4.50;;;2.33;;
4694;SDS011;2361;49.540;8.390;2023-04-16T06:22:39;4.30;;;3.03;;
4694;SDS011;2361;49.540;8.390;2023-04-16T06:25:06;6.40;;;4.20;;
4694;SDS011;2361;49.540;8.390;2023-04-16T06:27:34;6.23;;;3.43;;
4694;SDS011;2361;49.540;8.390;2023-04-16T06:30:01;4.40;;;3.17;;
4694;SDS011;2361;49.540;8.390;2023-04-16T06:32:28;9.13;;;5.30;;
4694;SDS011;2361;49.540;8.390;2023-04-16T06:34:56;11.73;;;6.70;;
4694;SDS011;2361;49.540;8.390;2023-04-16T06:37:24;6.47;;;3.80;;
4694;SDS011;2361;49.540;8.390;2023-04-16T06:39:50;10.93;;;5.60;;
4694;SDS011;2361;49.540;8.390;2023-04-16T06:42:18;3.03;;;2.40;;
4694;SDS011;2361;49.540;8.390;2023-04-16T06:44:45;11.90;;;6.07;;
4694;SDS011;2361;49.540;8.390;2023-04-16T06:47:13;7.03;;;4.47;;
4694;SDS011;2361;49.540;8.390;2023-04-16T06:49:40;8.93;;;4.90;;
4694;SDS011;2361;49.540;8.390;2023-04-16T06:52:07;9.67;;;5.73;;
4694;SDS011;2361;49.540;8.390;2023-04-16T06:54:34;8.40;;;4.90;;
4694;SDS011;2361;49.540;8.390;2023-04-16T06:57:01;9.73;;;4.87;;
4694;SDS011;2361;49.540;8.390;2023-04-16T06:59:28;10.50;;;6.37;;
4694;SDS011;2361;49.540;8.390;2023-04-16T07:01:55;9.97;;;5.80;;
4694;SDS011;2361;49.540;8.390;2023-04-16T07:04:22;2.20;;;1.90;;
4694;SDS011;2361;49.540;8.390;2023-04-16T07:06:49;12.13;;;7.30;;
4694;SDS011;2361;49.540;8.390;2023-04-16T07:09:16;9.23;;;4.90;;
4694;SDS011;2361;49.540;8.390;2023-04-16T07:11:43;7.63;;;4.83;;
4694;SDS011;2361;49.540;8.390;2023-04-16T07:14:10;7.40;;;5.10;;
4694;SDS011;2361;49.540;8.390;2023-04-16T07:16:37;3.90;;;2.47;;
4694;SDS011;2361;49.540;8.390;2023-04-16T07:19:04;14.60;;;5.97;;
4694;SDS011;2361;49.540;8.390;2023-04-16T07:21:31;10.33;;;5.60;;
4694;SDS011;2361;49.540;8.390;2023-04-16T07:23:58;9.57;;;4.77;;
4694;SDS011;2361;49.540;8.390;2023-04-16T07:26:26;9.10;;;5.43;;
4694;SDS011;2361;49.540;8.390;2023-04-16T07:28:52;10.57;;;4.57;;
4694;SDS011;2361;49.540;8.390;2023-04-16T07:31:19;13.53;;;5.60;;
4694;SDS011;2361;49.540;8.390;2023-04-16T07:33:46;9.20;;;5.33;;
4694;SDS011;2361;49.540;8.390;2023-04-16T07:36:14;12.03;;;6.77;;
4694;SDS011;2361;49.540;8.390;2023-04-16T07:38:41;13.20;;;5.53;;
4694;SDS011;2361;49.540;8.390;2023-04-16T07:41:08;6.43;;;3.53;;
4694;SDS011;2361;49.540;8.390;2023-04-16T07:43:35;10.27;;;5.73;;
4694;SDS011;2361;49.540;8.390;2023-04-16T07:46:02;6.80;;;4.60;;
4694;SDS011;2361;49.540;8.390;2023-04-16T07:48:29;15.50;;;6.30;;
4694;SDS011;2361;49.540;8.390;2023-04-16T07:50:56;4.40;;;2.77;;
4694;SDS011;2361;49.540;8.390;2023-04-16T07:53:23;13.67;;;7.13;;
4694;SDS011;2361;49.540;8.390;2023-04-16T07:55:50;7.87;;;4.20;;
4694;SDS011;2361;49.540;8.390;2023-04-16T07:58:17;9.10;;;5.70;;
4694;SDS011;2361;49.540;8.390;2023-04-16T08:00:44;3.53;;;2.73;;
4694;SDS011;2361;49.540;8.390;2023-04-16T08:03:11;8.10;;;4.73;;
4694;SDS011;2361;49.540;8.390;2023-04-16T08:05:38;6.23;;;3.17;;
4694;SDS011;2361;49.540;8.390;2023-04-16T08:08:05;10.37;;;4.50;;
4694;SDS011;2361;49.540;8.390;2023-04-16T08:10:32;4.63;;;3.30;;
4694;SDS011;2361;49.540;8.390;2023-04-16T08:13:02;11.27;;;5.77;;
4694;SDS011;2361;49.540;8.390;2023-04-16T08:15:29;8.57;;;5.20;;
4694;SDS011;2361;49.540;8.390;2023-04-16T08:17:56;9.63;;;5.10;;
4694;SDS011;2361;49.540;8.390;2023-04-16T08:20:24;5.37;;;3.37;;
4694;SDS011;2361;49.540;8.390;2023-04-16T08:22:52;6.40;;;3.40;;
4694;SDS011;2361;49.540;8.390;2023-04-16T08:25:19;7.73;;;5.10;;
4694;SDS011;2361;49.540;8.390;2023-04-16T08:27:48;8.07;;;4.90;;
4694;SDS011;2361;49.540;8.390;2023-04-16T08:30:16;6.90;;;4.57;;
4694;SDS011;2361;49.540;8.390;2023-04-16T08:32:43;8.80;;;4.20;;
4694;SDS011;2361;49.540;8.390;2023-04-16T08:35:10;12.73;;;4.97;;
4694;SDS011;2361;49.540;8.390;2023-04-16T08:37:37;11.97;;;6.20;;
4694;SDS011;2361;49.540;8.390;2023-04-16T08:40:04;10.00;;;6.90;;
4694;SDS011;2361;49.540;8.390;2023-04-16T08:42:33;8.37;;;6.17;;
4694;SDS011;2361;49.540;8.390;2023-04-16T08:45:15;10.30;;;6.87;;
4694;SDS011;2361;49.540;8.390;2023-04-16T08:47:49;10.77;;;7.03;;
4694;SDS011;2361;49.540;8.390;2023-04-16T08:50:21;8.93;;;5.37;;
4694;SDS011;2361;49.540;8.390;2023-04-16T08:52:51;9.10;;;5.90;;
4694;SDS011;2361;49.540;8.390;2023-04-16T08:58:14;6.80;;;5.03;;
4694;SDS011;2361;49.540;8.390;2023-04-16T09:00:47;9.30;;;5.47;;
4694;SDS011;2361;49.540;8.390;2023-04-16T09:03:14;7.63;;;4.83;;
4694;SDS011;2361;49.540;8.390;2023-04-16T09:05:42;7.60;;;4.57;;
4694;SDS011;2361;49.540;8.390;2023-04-16T09:08:09;14.53;;;5.80;;
4694;SDS011;2361;49.540;8.390;2023-04-16T09:10:36;11.30;;;6.60;;
4694;SDS011;2361;49.540;8.390;2023-04-16T09:13:03;8.80;;;5.07;;
4694;SDS011;2361;49.540;8.390;2023-04-16T09:15:30;8.00;;;4.63;;
4694;SDS011;2361;49.540;8.390;2023-04-16T09:18:00;12.57;;;4.60;;
4694;SDS011;2361;49.540;8.390;2023-04-16T09:20:27;10.83;;;6.80;;
4694;SDS011;2361;49.540;8.390;2023-04-16T09:22:54;9.00;;;4.80;;
4694;SDS011;2361;49.540;8.390;2023-04-16T09:25:22;11.23;;;5.67;;
4694;SDS011;2361;49.540;8.390;2023-04-16T09:27:50;9.67;;;4.83;;
4694;SDS011;2361;49.540;8.390;2023-04-16T09:30:21;9.93;;;5.40;;
4694;SDS011;2361;49.540;8.390;2023-04-16T09:33:10;3.17;;;2.00;;
4694;SDS011;2361;49.540;8.390;2023-04-16T09:35:46;5.60;;;4.00;;
4694;SDS011;2361;49.540;8.390;2023-04-16T09:38:18;7.80;;;4.20;;
4694;SDS011;2361;49.540;8.390;2023-04-16T09:40:45;9.70;;;5.87;;
4694;SDS011;2361;49.540;8.390;2023-04-16T09:43:13;5.47;;;3.53;;
4694;SDS011;2361;49.540;8.390;2023-04-16T09:45:51;8.33;;;4.87;;
4694;SDS011;2361;49.540;8.390;2023-04-16T09:48:30;7.83;;;4.40;;
4694;SDS011;2361;49.540;8.390;2023-04-16T09:50:59;5.87;;;4.40;;
4694;SDS011;2361;49.540;8.390;2023-04-16T09:53:27;8.20;;;4.33;;
4694;SDS011;2361;49.540;8.390;2023-04-16T09:55:56;10.97;;;5.00;;
4694;SDS011;2361;49.540;8.390;2023-04-16T09:58:24;5.97;;;3.80;;
4694;SDS011;2361;49.540;8.390;2023-04-16T10:01:02;4.60;;;3.30;;
4694;SDS011;2361;49.540;8.390;2023-04-16T10:03:38;4.17;;;2.60;;
4694;SDS011;2361;49.540;8.390;2023-04-16T10:06:15;14.63;;;3.07;;
4694;SDS011;2361;49.540;8.390;2023-04-16T10:08:48;7.23;;;4.87;;
4694;SDS011;2361;49.540;8.390;2023-04-16T10:11:17;4.63;;;3.23;;
4694;SDS011;2361;49.540;8.390;2023-04-16T10:13:46;13.97;;;7.30;;
4694;SDS011;2361;49.540;8.390;2023-04-16T10:16:13;7.37;;;5.00;;
4694;SDS011;2361;49.540;8.390;2023-04-16T10:18:40;9.27;;;5.50;;
4694;SDS011;2361;49.540;8.390;2023-04-16T10:21:10;7.80;;;4.73;;
4694;SDS011;2361;49.540;8.390;2023-04-16T10:23:38;11.87;;;6.90;;
4694;SDS011;2361;49.540;8.390;2023-04-16T10:26:06;13.67;;;7.07;;
4694;SDS011;2361;49.540;8.390;2023-04-16T10:28:33;14.20;;;7.43;;
4694;SDS011;2361;49.540;8.390;2023-04-16T10:31:02;9.07;;;6.17;;
4694;SDS011;2361;49.540;8.390;2023-04-16T10:33:33;9.43;;;5.43;;
4694;SDS011;2361;49.540;8.390;2023-04-16T10:36:12;8.07;;;5.10;;
4694;SDS011;2361;49.540;8.390;2023-04-16T10:41:13;12.33;;;7.00;;
4694;SDS011;2361;49.540;8.390;2023-04-16T10:43:42;9.23;;;5.23;;
4694;SDS011;2361;49.540;8.390;2023-04-16T10:46:24;12.93;;;7.87;;
4694;SDS011;2361;49.540;8.390;2023-04-16T10:48:59;9.60;;;5.70;;
4694;SDS011;2361;49.540;8.390;2023-04-16T10:51:29;11.33;;;6.57;;
4694;SDS011;2361;49.540;8.390;2023-04-16T10:56:37;8.20;;;5.23;;
4694;SDS011;2361;49.540;8.390;2023-04-16T10:59:05;7.30;;;3.93;;
4694;SDS011;2361;49.540;8.390;2023-04-16T11:01:33;12.80;;;6.63;;
4694;SDS011;2361;49.540;8.390;2023-04-16T11:12:34;19.53;;;9.30;;
4694;SDS011;2361;49.540;8.390;2023-04-16T11:15:22;6.00;;;3.97;;
4694;SDS011;2361;49.540;8.390;2023-04-16T11:17:50;14.27;;;5.47;;
4694;SDS011;2361;49.540;8.390;2023-04-16T11:22:50;18.30;;;9.57;;
4694;SDS011;2361;49.540;8.390;2023-04-16T11:25:22;14.47;;;8.37;;
4694;SDS011;2361;49.540;8.390;2023-04-16T11:27:50;14.67;;;7.97;;
4694;SDS011;2361;49.540;8.390;2023-04-16T11:30:26;11.70;;;6.13;;
4694;SDS011;2361;49.540;8.390;2023-04-16T11:32:55;15.60;;;8.03;;
4694;SDS011;2361;49.540;8.390;2023-04-16T11:35:22;5.90;;;3.77;;
4694;SDS011;2361;49.540;8.390;2023-04-16T11:37:54;15.10;;;7.73;;
4694;SDS011;2361;49.540;8.390;2023-04-16T11:40:22;12.30;;;6.60;;
4694;SDS011;2361;49.540;8.390;2023-04-16T11:42:49;9.67;;;6.00;;
4694;SDS011;2361;49.540;8.390;2023-04-16T11:45:16;8.87;;;5.10;;
4694;SDS011;2361;49.540;8.390;2023-04-16T11:47:45;19.23;;;9.60;;
4694;SDS011;2361;49.540;8.390;2023-04-16T11:50:24;17.10;;;9.27;;
4694;SDS011;2361;49.540;8.390;2023-04-16T11:52:55;12.97;;;7.63;;
4694;SDS011;2361;49.540;8.390;2023-04-16T11:55:29;12.47;;;7.13;;
4694;SDS011;2361;49.540;8.390;2023-04-16T11:57:56;16.13;;;8.10;;
4694;SDS011;2361;49.540;8.390;2023-04-16T12:00:23;17.83;;;8.50;;
4694;SDS011;2361;49.540;8.390;2023-04-16T12:02:53;13.20;;;7.30;;
4694;SDS011;2361;49.540;8.390;2023-04-16T12:05:30;15.63;;;7.27;;
4694;SDS011;2361;49.540;8.390;2023-04-16T12:08:05;13.50;;;7.37;;
4694;SDS011;2361;49.540;8.390;2023-04-16T12:10:35;11.37;;;6.60;;
4694;SDS011;2361;49.540;8.390;2023-04-16T12:13:18;17.20;;;10.80;;
4694;SDS011;2361;49.540;8.390;2023-04-16T12:15:48;8.60;;;5.27;;
4694;SDS011;2361;49.540;8.390;2023-04-16T12:18:24;10.73;;;6.30;;
4694;SDS011;2361;49.540;8.390;2023-04-16T12:20:54;13.53;;;7.93;;
4694;SDS011;2361;49.540;8.390;2023-04-16T12:23:22;16.63;;;8.27;;
4694;SDS011;2361;49.540;8.390;2023-04-16T12:25:54;14.53;;;8.17;;
4694;SDS011;2361;49.540;8.390;2023-04-16T12:28:31;12.60;;;7.13;;
4694;SDS011;2361;49.540;8.390;2023-04-16T12:31:01;16.37;;;7.70;;
4694;SDS011;2361;49.540;8.390;2023-04-16T12:33:28;8.07;;;4.10;;
4694;SDS011;2361;49.540;8.390;2023-04-16T12:35:56;18.07;;;9.33;;
4694;SDS011;2361;49.540;8.390;2023-04-16T12:38:23;17.07;;;9.33;;
4694;SDS011;2361;49.540;8.390;2023-04-16T12:40:51;11.63;;;6.20;;
4694;SDS011;2361;49.540;8.390;2023-04-16T12:43:21;15.30;;;7.73;;
4694;SDS011;2361;49.540;8.390;2023-04-16T12:45:48;15.20;;;9.93;;
4694;SDS011;2361;49.540;8.390;2023-04-16T12:48:16;15.90;;;10.43;;
4694;SDS011;2361;49.540;8.390;2023-04-16T12:50:42;11.67;;;6.50;;
4694;SDS011;2361;49.540;8.390;2023-04-16T12:53:10;14.77;;;8.13;;
4694;SDS011;2361;49.540;8.390;2023-04-16T12:55:37;16.10;;;9.80;;
4694;SDS011;2361;49.540;8.390;2023-04-16T12:58:04;14.00;;;7.70;;
4694;SDS011;2361;49.540;8.390;2023-04-16T13:00:31;15.33;;;9.17;;
4694;SDS011;2361;49.540;8.390;2023-04-16T13:02:58;18.00;;;11.37;;
4694;SDS011;2361;49.540;8.390;2023-04-16T13:05:26;17.07;;;8.53;;
4694;SDS011;2361;49.540;8.390;2023-04-16T13:07:52;16.17;;;9.10;;
4694;SDS011;2361;49.540;8.390;2023-04-16T13:10:20;17.50;;;9.30;;
4694;SDS011;2361;49.540;8.390;2023-04-16T13:12:48;16.60;;;9.17;;
4694;SDS011;2361;49.540;8.390;2023-04-16T13:15:15;17.23;;;11.30;;
4694;SDS011;2361;49.540;8.390;2023-04-16T13:17:42;14.83;;;9.13;;
4694;SDS011;2361;49.540;8.390;2023-04-16T13:20:09;12.70;;;7.87;;
4694;SDS011;2361;49.540;8.390;2023-04-16T13:22:36;15.73;;;8.30;;
4694;SDS011;2361;49.540;8.390;2023-04-16T13:25:04;19.20;;;9.00;;
4694;SDS011;2361;49.540;8.390;2023-04-16T13:27:32;21.03;;;12.13;;
4694;SDS011;2361;49.540;8.390;2023-04-16T13:29:59;12.20;;;7.87;;
4694;SDS011;2361;49.540;8.390;2023-04-16T13:32:26;17.50;;;9.47;;
4694;SDS011;2361;49.540;8.390;2023-04-16T13:34:54;18.90;;;10.40;;
4694;SDS011;2361;49.540;8.390;2023-04-16T13:37:20;24.63;;;13.43;;
4694;SDS011;2361;49.540;8.390;2023-04-16T13:39:47;18.50;;;10.20;;
4694;SDS011;2361;49.540;8.390;2023-04-16T13:42:14;20.73;;;9.73;;
4694;SDS011;2361;49.540;8.390;2023-04-16T13:44:42;17.63;;;10.30;;
4694;SDS011;2361;49.540;8.390;2023-04-16T13:47:09;19.77;;;9.70;;
4694;SDS011;2361;49.540;8.390;2023-04-16T13:49:36;16.53;;;8.57;;
4694;SDS011;2361;49.540;8.390;2023-04-16T13:52:03;19.70;;;9.83;;
4694;SDS011;2361;49.540;8.390;2023-04-16T13:54:30;18.40;;;10.17;;
4694;SDS011;2361;49.540;8.390;2023-04-16T13:56:58;18.03;;;8.73;;
4694;SDS011;2361;49.540;8.390;2023-04-16T13:59:25;14.67;;;7.90;;
4694;SDS011;2361;49.540;8.390;2023-04-16T14:01:52;20.17;;;10.10;;
4694;SDS011;2361;49.540;8.390;2023-04-16T14:04:19;12.47;;;8.43;;
4694;SDS011;2361;49.540;8.390;2023-04-16T14:06:48;18.63;;;9.90;;
4694;SDS011;2361;49.540;8.390;2023-04-16T14:09:15;17.20;;;9.37;;
4694;SDS011;2361;49.540;8.390;2023-04-16T14:11:42;24.43;;;10.93;;
4694;SDS011;2361;49.540;8.390;2023-04-16T14:14:09;20.50;;;11.20;;
4694;SDS011;2361;49.540;8.390;2023-04-16T14:16:37;18.40;;;10.83;;
4694;SDS011;2361;49.540;8.390;2023-04-16T14:19:04;21.53;;;10.87;;
4694;SDS011;2361;49.540;8.390;2023-04-16T14:21:31;17.93;;;8.83;;
4694;SDS011;2361;49.540;8.390;2023-04-16T14:23:58;18.80;;;10.93;;
4694;SDS011;2361;49.540;8.390;2023-04-16T14:26:25;22.10;;;11.17;;
4694;SDS011;2361;49.540;8.390;2023-04-16T14:28:51;20.00;;;11.40;;
4694;SDS011;2361;49.540;8.390;2023-04-16T14:31:18;18.20;;;9.87;;
4694;SDS011;2361;49.540;8.390;2023-04-16T14:33:45;14.80;;;8.73;;
4694;SDS011;2361;49.540;8.390;2023-04-16T14:36:12;19.23;;;10.30;;
4694;SDS011;2361;49.540;8.390;2023-04-16T14:38:39;18.20;;;9.97;;
4694;SDS011;2361;49.540;8.390;2023-04-16T14:41:08;21.63;;;10.37;;
4694;SDS011;2361;49.540;8.390;2023-04-16T14:43:37;22.97;;;11.60;;
4694;SDS011;2361;49.540;8.390;2023-04-16T14:46:06;21.07;;;11.93;;
4694;SDS011;2361;49.540;8.390;2023-04-16T14:48:33;25.17;;;11.53;;
4694;SDS011;2361;49.540;8.390;2023-04-16T14:51:00;21.50;;;12.50;;
4694;SDS011;2361;49.540;8.390;2023-04-16T14:53:27;19.80;;;11.87;;
4694;SDS011;2361;49.540;8.390;2023-04-16T14:55:54;19.03;;;11.00;;
4694;SDS011;2361;49.540;8.390;2023-04-16T14:58:24;23.40;;;10.73;;
4694;SDS011;2361;49.540;8.390;2023-04-16T15:00:51;18.40;;;10.13;;
4694;SDS011;2361;49.540;8.390;2023-04-16T15:03:18;19.77;;;10.63;;
4694;SDS011;2361;49.540;8.390;2023-04-16T15:05:46;20.63;;;11.57;;
4694;SDS011;2361;49.540;8.390;2023-04-16T15:08:20;21.43;;;11.50;;
4694;SDS011;2361;49.540;8.390;2023-04-16T15:10:48;20.37;;;11.90;;
4694;SDS011;2361;49.540;8.390;2023-04-16T15:13:16;15.00;;;9.03;;
4694;SDS011;2361;49.540;8.390;2023-04-16T15:15:43;17.07;;;10.60;;
4694;SDS011;2361;49.540;8.390;2023-04-16T15:18:10;21.20;;;11.27;;
4694;SDS011;2361;49.540;8.390;2023-04-16T15:20:37;18.87;;;10.70;;
4694;SDS011;2361;49.540;8.390;2023-04-16T15:23:04;19.07;;;10.50;;
4694;SDS011;2361;49.540;8.390;2023-04-16T15:25:31;21.00;;;11.87;;
4694;SDS011;2361;49.540;8.390;2023-04-16T15:27:58;20.87;;;12.27;;
4694;SDS011;2361;49.540;8.390;2023-04-16T15:30:27;17.63;;;9.77;;